sensor_id;sensor_type;location;lat;lon;timestamp;P1;durP1;ratioP1;P2;durP2;ratioP2
78298;SDS011;67556;55.656;12.590;2023-10-09T00:01:25;2.25;;;1.42;;
78298;SDS011;67556;55.656;12.590;2023-10-09T00:03:53;1.75;;;1.35;;
78298;SDS011;67556;55.656;12.590;2023-10-09T00:06:21;2.60;;;1.42;;
78298;SDS011;67556;55.656;12.590;2023-10-09T00:08:57;3.42;;;1.55;;
78298;SDS011;67556;55.656;12.590;2023-10-09T00:11:37;1.60;;;1.40;;
78298;SDS011;67556;55.656;12.590;2023-10-09T00:14:06;2.42;;;1.40;;
78298;SDS011;67556;55.656;12.590;2023-10-09T00:16:33;2.17;;;1.33;;
78298;SDS011;67556;55.656;12.590;2023-10-09T00:19:01;1.85;;;1.35;;
78298;SDS011;67556;55.656;12.590;2023-10-09T00:21:39;2.65;;;1.63;;
78298;SDS011;67556;55.656;12.590;2023-10-09T00:24:06;2.70;;;1.60;;
78298;SDS011;67556;55.656;12.590;2023-10-09T00:26:39;2.50;;;1.45;;
78298;SDS011;67556;55.656;12.590;2023-10-09T00:29:10;2.72;;;1.60;;
78298;SDS011;67556;55.656;12.590;2023-10-09T00:31:40;1.95;;;1.58;;
78298;SDS011;67556;55.656;12.590;2023-10-09T00:34:16;1.70;;;1.50;;
78298;SDS011;67556;55.656;12.590;2023-10-09T00:36:45;1.67;;;1.42;;
78298;SDS011;67556;55.656;12.590;2023-10-09T00:39:16;1.70;;;1.30;;
78298;SDS011;67556;55.656;12.590;2023-10-09T00:41:48;2.22;;;1.50;;
78298;SDS011;67556;55.656;12.590;2023-10-09T00:44:14;3.13;;;1.60;;
78298;SDS011;67556;55.656;12.590;2023-10-09T00:46:41;4.43;;;1.55;;
78298;SDS011;67556;55.656;12.590;2023-10-09T00:49:08;2.50;;;1.45;;
78298;SDS011;67556;55.656;12.590;2023-10-09T00:51:37;2.08;;;1.60;;
78298;SDS011;67556;55.656;12.590;2023-10-09T00:54:07;1.88;;;1.48;;
78298;SDS011;67556;55.656;12.590;2023-10-09T00:56:39;3.10;;;1.60;;
78298;SDS011;67556;55.656;12.590;2023-10-09T00:59:08;1.88;;;1.52;;
78298;SDS011;67556;55.656;12.590;2023-10-09T01:01:40;2.13;;;1.70;;
78298;SDS011;67556;55.656;12.590;2023-10-09T01:04:10;2.83;;;1.50;;
78298;SDS011;67556;55.656;12.590;2023-10-09T01:06:42;1.88;;;1.60;;
78298;SDS011;67556;55.656;12.590;2023-10-09T01:09:10;3.10;;;1.83;;
78298;SDS011;67556;55.656;12.590;2023-10-09T01:11:37;1.42;;;1.30;;
78298;SDS011;67556;55.656;12.590;2023-10-09T01:14:13;2.35;;;1.55;;
78298;SDS011;67556;55.656;12.590;2023-10-09T01:16:40;2.08;;;1.40;;
78298;SDS011;67556;55.656;12.590;2023-10-09T01:19:08;1.63;;;1.40;;
78298;SDS011;67556;55.656;12.590;2023-10-09T01:21:46;2.08;;;1.40;;
78298;SDS011;67556;55.656;12.590;2023-10-09T01:24:15;1.60;;;1.40;;
78298;SDS011;67556;55.656;12.590;2023-10-09T01:26:45;2.78;;;1.52;;
78298;SDS011;67556;55.656;12.590;2023-10-09T01:29:12;2.00;;;1.40;;
78298;SDS011;67556;55.656;12.590;2023-10-09T01:31:41;1.67;;;1.38;;
78298;SDS011;67556;55.656;12.590;2023-10-09T01:34:20;2.53;;;1.85;;
78298;SDS011;67556;55.656;12.590;2023-10-09T01:36:49;1.75;;;1.30;;
78298;SDS011;67556;55.656;12.590;2023-10-09T01:39:20;1.58;;;1.20;;
78298;SDS011;67556;55.656;12.590;2023-10-09T01:41:52;2.33;;;1.23;;
78298;SDS011;67556;55.656;12.590;2023-10-09T01:44:23;2.30;;;1.63;;
78298;SDS011;67556;55.656;12.590;2023-10-09T01:46:51;2.15;;;1.50;;
78298;SDS011;67556;55.656;12.590;2023-10-09T01:49:20;2.00;;;1.50;;
78298;SDS011;67556;55.656;12.590;2023-10-09T01:51:55;1.88;;;1.10;;
78298;SDS011;67556;55.656;12.590;2023-10-09T01:54:26;1.52;;;1.15;;
78298;SDS011;67556;55.656;12.590;2023-10-09T01:59:37;1.30;;;1.13;;
78298;SDS011;67556;55.656;12.590;2023-10-09T02:02:09;2.35;;;1.50;;
78298;SDS011;67556;55.656;12.590;2023-10-09T02:04:49;2.92;;;1.55;;
78298;SDS011;67556;55.656;12.590;2023-10-09T02:07:16;2.55;;;1.92;;
78298;SDS011;67556;55.656;12.590;2023-10-09T02:09:49;2.70;;;2.25;;
78298;SDS011;67556;55.656;12.590;2023-10-09T02:12:15;3.40;;;2.47;;
78298;SDS011;67556;55.656;12.590;2023-10-09T02:14:42;2.90;;;2.42;;
78298;SDS011;67556;55.656;12.590;2023-10-09T02:17:10;4.38;;;2.90;;
78298;SDS011;67556;55.656;12.590;2023-10-09T02:19:43;3.38;;;2.33;;
78298;SDS011;67556;55.656;12.590;2023-10-09T02:22:13;2.75;;;2.33;;
78298;SDS011;67556;55.656;12.590;2023-10-09T02:24:40;2.53;;;2.30;;
78298;SDS011;67556;55.656;12.590;2023-10-09T02:27:24;2.92;;;2.08;;
78298;SDS011;67556;55.656;12.590;2023-10-09T02:30:12;3.35;;;2.33;;
78298;SDS011;67556;55.656;12.590;2023-10-09T02:32:43;2.28;;;1.85;;
78298;SDS011;67556;55.656;12.590;2023-10-09T02:35:14;3.30;;;2.00;;
78298;SDS011;67556;55.656;12.590;2023-10-09T02:38:03;4.05;;;1.90;;
78298;SDS011;67556;55.656;12.590;2023-10-09T02:40:32;1.85;;;1.42;;
78298;SDS011;67556;55.656;12.590;2023-10-09T02:43:07;2.75;;;1.50;;
78298;SDS011;67556;55.656;12.590;2023-10-09T02:45:37;3.50;;;1.50;;
78298;SDS011;67556;55.656;12.590;2023-10-09T02:48:16;4.30;;;1.38;;
78298;SDS011;67556;55.656;12.590;2023-10-09T02:50:45;2.20;;;1.45;;
78298;SDS011;67556;55.656;12.590;2023-10-09T02:53:13;3.72;;;1.30;;
78298;SDS011;67556;55.656;12.590;2023-10-09T02:55:44;2.70;;;1.50;;
78298;SDS011;67556;55.656;12.590;2023-10-09T02:58:28;2.15;;;1.52;;
78298;SDS011;67556;55.656;12.590;2023-10-09T03:03:32;2.60;;;1.52;;
78298;SDS011;67556;55.656;12.590;2023-10-09T03:06:00;2.22;;;1.33;;
78298;SDS011;67556;55.656;12.590;2023-10-09T03:08:35;2.53;;;1.45;;
78298;SDS011;67556;55.656;12.590;2023-10-09T03:11:02;2.08;;;1.30;;
78298;SDS011;67556;55.656;12.590;2023-10-09T03:13:32;1.52;;;1.23;;
78298;SDS011;67556;55.656;12.590;2023-10-09T03:15:59;3.20;;;1.58;;
78298;SDS011;67556;55.656;12.590;2023-10-09T03:18:27;2.25;;;1.45;;
78298;SDS011;67556;55.656;12.590;2023-10-09T03:20:53;1.58;;;1.27;;
78298;SDS011;67556;55.656;12.590;2023-10-09T03:23:21;2.03;;;1.30;;
78298;SDS011;67556;55.656;12.590;2023-10-09T03:25:48;2.38;;;1.40;;
78298;SDS011;67556;55.656;12.590;2023-10-09T03:28:16;1.77;;;1.10;;
78298;SDS011;67556;55.656;12.590;2023-10-09T03:30:44;1.92;;;1.30;;
78298;SDS011;67556;55.656;12.590;2023-10-09T03:33:13;2.28;;;1.40;;
78298;SDS011;67556;55.656;12.590;2023-10-09T03:35:40;2.92;;;1.23;;
78298;SDS011;67556;55.656;12.590;2023-10-09T03:38:07;1.88;;;1.42;;
78298;SDS011;67556;55.656;12.590;2023-10-09T03:40:37;2.28;;;1.40;;
78298;SDS011;67556;55.656;12.590;2023-10-09T03:43:04;1.52;;;1.08;;
78298;SDS011;67556;55.656;12.590;2023-10-09T03:45:31;1.52;;;1.25;;
78298;SDS011;67556;55.656;12.590;2023-10-09T03:48:01;1.65;;;1.27;;
78298;SDS011;67556;55.656;12.590;2023-10-09T03:50:34;1.55;;;1.20;;
78298;SDS011;67556;55.656;12.590;2023-10-09T03:53:03;2.90;;;1.45;;
78298;SDS011;67556;55.656;12.590;2023-10-09T03:55:31;1.67;;;1.30;;
78298;SDS011;67556;55.656;12.590;2023-10-09T03:57:58;2.13;;;1.30;;
78298;SDS011;67556;55.656;12.590;2023-10-09T04:00:27;2.67;;;1.52;;
78298;SDS011;67556;55.656;12.590;2023-10-09T04:02:55;2.58;;;1.42;;
78298;SDS011;67556;55.656;12.590;2023-10-09T04:05:23;2.92;;;1.50;;
78298;SDS011;67556;55.656;12.590;2023-10-09T04:07:51;1.73;;;1.30;;
78298;SDS011;67556;55.656;12.590;2023-10-09T04:10:18;6.63;;;1.52;;
78298;SDS011;67556;55.656;12.590;2023-10-09T04:13:10;3.13;;;1.65;;
78298;SDS011;67556;55.656;12.590;2023-10-09T04:15:50;2.38;;;1.80;;
78298;SDS011;67556;55.656;12.590;2023-10-09T04:18:19;2.70;;;1.80;;
78298;SDS011;67556;55.656;12.590;2023-10-09T04:20:57;3.05;;;2.20;;
78298;SDS011;67556;55.656;12.590;2023-10-09T04:23:46;3.70;;;2.00;;
78298;SDS011;67556;55.656;12.590;2023-10-09T04:26:30;3.53;;;2.30;;
78298;SDS011;67556;55.656;12.590;2023-10-09T04:29:00;3.72;;;2.22;;
78298;SDS011;67556;55.656;12.590;2023-10-09T04:31:27;2.38;;;2.05;;
78298;SDS011;67556;55.656;12.590;2023-10-09T04:34:02;2.15;;;1.75;;
78298;SDS011;67556;55.656;12.590;2023-10-09T04:36:44;4.05;;;1.77;;
78298;SDS011;67556;55.656;12.590;2023-10-09T04:39:15;3.20;;;1.58;;
78298;SDS011;67556;55.656;12.590;2023-10-09T04:41:58;2.63;;;1.52;;
78298;SDS011;67556;55.656;12.590;2023-10-09T04:44:39;3.67;;;2.05;;
78298;SDS011;67556;55.656;12.590;2023-10-09T04:47:11;2.50;;;1.65;;
78298;SDS011;67556;55.656;12.590;2023-10-09T04:49:50;3.75;;;1.77;;
78298;SDS011;67556;55.656;12.590;2023-10-09T04:52:28;3.15;;;1.73;;
78298;SDS011;67556;55.656;12.590;2023-10-09T04:55:17;4.70;;;2.05;;
78298;SDS011;67556;55.656;12.590;2023-10-09T04:57:46;3.08;;;1.60;;
78298;SDS011;67556;55.656;12.590;2023-10-09T05:00:26;4.40;;;1.75;;
78298;SDS011;67556;55.656;12.590;2023-10-09T05:03:12;2.33;;;1.85;;
78298;SDS011;67556;55.656;12.590;2023-10-09T05:05:50;3.13;;;2.05;;
78298;SDS011;67556;55.656;12.590;2023-10-09T05:08:26;4.75;;;1.80;;
78298;SDS011;67556;55.656;12.590;2023-10-09T05:10:58;3.35;;;2.17;;
78298;SDS011;67556;55.656;12.590;2023-10-09T05:13:40;4.80;;;1.95;;
78298;SDS011;67556;55.656;12.590;2023-10-09T05:16:24;3.60;;;1.75;;
78298;SDS011;67556;55.656;12.590;2023-10-09T05:18:51;4.60;;;1.67;;
78298;SDS011;67556;55.656;12.590;2023-10-09T05:21:22;3.95;;;1.80;;
78298;SDS011;67556;55.656;12.590;2023-10-09T05:24:07;3.75;;;1.90;;
78298;SDS011;67556;55.656;12.590;2023-10-09T05:26:45;3.38;;;2.20;;
78298;SDS011;67556;55.656;12.590;2023-10-09T05:29:16;3.45;;;1.70;;
78298;SDS011;67556;55.656;12.590;2023-10-09T05:34:28;3.60;;;2.10;;
78298;SDS011;67556;55.656;12.590;2023-10-09T05:36:59;2.45;;;1.90;;
78298;SDS011;67556;55.656;12.590;2023-10-09T05:39:46;3.53;;;2.10;;
78298;SDS011;67556;55.656;12.590;2023-10-09T05:42:33;2.67;;;2.00;;
78298;SDS011;67556;55.656;12.590;2023-10-09T05:45:08;3.47;;;2.05;;
78298;SDS011;67556;55.656;12.590;2023-10-09T05:47:53;3.50;;;1.88;;
78298;SDS011;67556;55.656;12.590;2023-10-09T05:50:21;4.22;;;2.15;;
78298;SDS011;67556;55.656;12.590;2023-10-09T05:52:59;5.43;;;2.20;;
78298;SDS011;67556;55.656;12.590;2023-10-09T05:55:55;4.35;;;2.15;;
78298;SDS011;67556;55.656;12.590;2023-10-09T05:58:39;4.13;;;2.10;;
78298;SDS011;67556;55.656;12.590;2023-10-09T06:01:39;4.78;;;2.35;;
78298;SDS011;67556;55.656;12.590;2023-10-09T06:04:23;3.63;;;2.20;;
78298;SDS011;67556;55.656;12.590;2023-10-09T06:06:58;5.05;;;2.40;;
78298;SDS011;67556;55.656;12.590;2023-10-09T06:09:36;5.03;;;2.28;;
78298;SDS011;67556;55.656;12.590;2023-10-09T06:12:15;4.65;;;2.20;;
78298;SDS011;67556;55.656;12.590;2023-10-09T06:15:14;3.53;;;2.10;;
78298;SDS011;67556;55.656;12.590;2023-10-09T06:20:45;4.78;;;2.00;;
78298;SDS011;67556;55.656;12.590;2023-10-09T06:23:33;4.65;;;2.58;;
78298;SDS011;67556;55.656;12.590;2023-10-09T06:26:14;4.75;;;2.20;;
78298;SDS011;67556;55.656;12.590;2023-10-09T06:28:51;5.13;;;2.38;;
78298;SDS011;67556;55.656;12.590;2023-10-09T06:31:39;4.20;;;1.80;;
78298;SDS011;67556;55.656;12.590;2023-10-09T06:34:24;6.22;;;2.25;;
78298;SDS011;67556;55.656;12.590;2023-10-09T06:36:58;4.78;;;2.60;;
78298;SDS011;67556;55.656;12.590;2023-10-09T06:39:31;4.13;;;2.45;;
78298;SDS011;67556;55.656;12.590;2023-10-09T06:42:15;3.47;;;2.20;;
78298;SDS011;67556;55.656;12.590;2023-10-09T06:44:56;4.93;;;2.45;;
78298;SDS011;67556;55.656;12.590;2023-10-09T06:47:25;4.05;;;2.40;;
78298;SDS011;67556;55.656;12.590;2023-10-09T06:49:50;5.15;;;2.38;;
78298;SDS011;67556;55.656;12.590;2023-10-09T06:52:31;5.32;;;2.33;;
78298;SDS011;67556;55.656;12.590;2023-10-09T06:55:11;6.00;;;1.88;;
78298;SDS011;67556;55.656;12.590;2023-10-09T06:57:44;4.05;;;2.55;;
78298;SDS011;67556;55.656;12.590;2023-10-09T07:00:15;3.13;;;2.10;;
78298;SDS011;67556;55.656;12.590;2023-10-09T07:02:56;10.18;;;3.05;;
78298;SDS011;67556;55.656;12.590;2023-10-09T07:05:23;4.13;;;2.10;;
78298;SDS011;67556;55.656;12.590;2023-10-09T07:07:56;3.40;;;2.38;;
78298;SDS011;67556;55.656;12.590;2023-10-09T07:10:45;5.95;;;2.40;;
78298;SDS011;67556;55.656;12.590;2023-10-09T07:13:27;4.72;;;2.03;;
78298;SDS011;67556;55.656;12.590;2023-10-09T07:15:56;3.92;;;2.40;;
78298;SDS011;67556;55.656;12.590;2023-10-09T07:18:39;4.15;;;2.15;;
78298;SDS011;67556;55.656;12.590;2023-10-09T07:21:14;3.40;;;2.20;;
78298;SDS011;67556;55.656;12.590;2023-10-09T07:23:43;4.93;;;2.50;;
78298;SDS011;67556;55.656;12.590;2023-10-09T07:26:14;2.95;;;1.90;;
78298;SDS011;67556;55.656;12.590;2023-10-09T07:28:48;4.32;;;2.53;;
78298;SDS011;67556;55.656;12.590;2023-10-09T07:31:19;4.80;;;2.25;;
78298;SDS011;67556;55.656;12.590;2023-10-09T07:34:04;5.22;;;2.40;;
78298;SDS011;67556;55.656;12.590;2023-10-09T07:36:52;2.92;;;2.00;;
78298;SDS011;67556;55.656;12.590;2023-10-09T07:39:21;4.53;;;2.72;;
78298;SDS011;67556;55.656;12.590;2023-10-09T07:41:48;5.18;;;2.50;;
78298;SDS011;67556;55.656;12.590;2023-10-09T07:44:27;3.92;;;2.60;;
78298;SDS011;67556;55.656;12.590;2023-10-09T07:47:04;3.65;;;2.28;;
78298;SDS011;67556;55.656;12.590;2023-10-09T07:49:42;4.85;;;2.40;;
78298;SDS011;67556;55.656;12.590;2023-10-09T07:52:13;2.97;;;2.25;;
78298;SDS011;67556;55.656;12.590;2023-10-09T07:54:40;4.63;;;2.42;;
78298;SDS011;67556;55.656;12.590;2023-10-09T07:57:15;6.25;;;2.35;;
78298;SDS011;67556;55.656;12.590;2023-10-09T07:59:42;4.43;;;2.30;;
78298;SDS011;67556;55.656;12.590;2023-10-09T08:02:21;3.80;;;2.20;;
78298;SDS011;67556;55.656;12.590;2023-10-09T08:04:57;3.78;;;2.05;;
78298;SDS011;67556;55.656;12.590;2023-10-09T08:07:28;4.57;;;2.47;;
78298;SDS011;67556;55.656;12.590;2023-10-09T08:09:59;3.53;;;2.00;;
78298;SDS011;67556;55.656;12.590;2023-10-09T08:12:40;3.28;;;1.75;;
78298;SDS011;67556;55.656;12.590;2023-10-09T08:15:20;3.83;;;1.90;;
78298;SDS011;67556;55.656;12.590;2023-10-09T08:17:48;4.05;;;2.00;;
78298;SDS011;67556;55.656;12.590;2023-10-09T08:20:20;4.60;;;1.88;;
78298;SDS011;67556;55.656;12.590;2023-10-09T08:22:51;3.65;;;1.88;;
78298;SDS011;67556;55.656;12.590;2023-10-09T08:25:17;3.17;;;1.77;;
78298;SDS011;67556;55.656;12.590;2023-10-09T08:27:53;3.45;;;2.33;;
78298;SDS011;67556;55.656;12.590;2023-10-09T08:30:23;3.72;;;1.60;;
78298;SDS011;67556;55.656;12.590;2023-10-09T08:33:07;4.32;;;2.00;;
78298;SDS011;67556;55.656;12.590;2023-10-09T08:35:52;2.65;;;1.60;;
78298;SDS011;67556;55.656;12.590;2023-10-09T08:38:21;3.10;;;1.70;;
78298;SDS011;67556;55.656;12.590;2023-10-09T08:40:49;4.28;;;1.83;;
78298;SDS011;67556;55.656;12.590;2023-10-09T08:43:16;4.57;;;2.10;;
78298;SDS011;67556;55.656;12.590;2023-10-09T08:45:44;3.03;;;1.92;;
78298;SDS011;67556;55.656;12.590;2023-10-09T08:48:13;3.08;;;2.00;;
78298;SDS011;67556;55.656;12.590;2023-10-09T08:50:41;4.85;;;1.90;;
78298;SDS011;67556;55.656;12.590;2023-10-09T08:53:09;4.97;;;1.88;;
78298;SDS011;67556;55.656;12.590;2023-10-09T08:55:36;5.05;;;2.03;;
78298;SDS011;67556;55.656;12.590;2023-10-09T08:58:03;3.40;;;1.70;;
78298;SDS011;67556;55.656;12.590;2023-10-09T09:00:44;3.67;;;2.05;;
78298;SDS011;67556;55.656;12.590;2023-10-09T09:03:13;4.70;;;1.85;;
78298;SDS011;67556;55.656;12.590;2023-10-09T09:05:41;3.55;;;2.13;;
78298;SDS011;67556;55.656;12.590;2023-10-09T09:08:20;3.35;;;1.60;;
78298;SDS011;67556;55.656;12.590;2023-10-09T09:10:50;4.63;;;2.00;;
78298;SDS011;67556;55.656;12.590;2023-10-09T09:13:19;3.90;;;1.80;;
78298;SDS011;67556;55.656;12.590;2023-10-09T09:15:46;2.72;;;1.63;;
78298;SDS011;67556;55.656;12.590;2023-10-09T09:18:14;5.50;;;2.25;;
78298;SDS011;67556;55.656;12.590;2023-10-09T09:20:42;3.38;;;1.80;;
78298;SDS011;67556;55.656;12.590;2023-10-09T09:23:11;3.53;;;1.70;;
78298;SDS011;67556;55.656;12.590;2023-10-09T09:25:39;3.35;;;1.60;;
78298;SDS011;67556;55.656;12.590;2023-10-09T09:28:08;2.85;;;1.80;;
78298;SDS011;67556;55.656;12.590;2023-10-09T09:30:38;3.45;;;1.60;;
78298;SDS011;67556;55.656;12.590;2023-10-09T09:33:17;3.83;;;1.75;;
78298;SDS011;67556;55.656;12.590;2023-10-09T09:35:55;3.88;;;1.85;;
78298;SDS011;67556;55.656;12.590;2023-10-09T09:38:22;2.78;;;1.92;;
78298;SDS011;67556;55.656;12.590;2023-10-09T09:40:49;6.00;;;2.05;;
78298;SDS011;67556;55.656;12.590;2023-10-09T09:43:19;2.40;;;1.83;;
78298;SDS011;67556;55.656;12.590;2023-10-09T09:45:48;3.22;;;1.60;;
78298;SDS011;67556;55.656;12.590;2023-10-09T09:48:15;3.88;;;2.13;;
78298;SDS011;67556;55.656;12.590;2023-10-09T09:50:43;2.92;;;1.95;;
78298;SDS011;67556;55.656;12.590;2023-10-09T09:53:10;4.82;;;1.90;;
78298;SDS011;67556;55.656;12.590;2023-10-09T09:55:42;4.80;;;2.00;;
78298;SDS011;67556;55.656;12.590;2023-10-09T09:58:08;4.03;;;2.30;;
78298;SDS011;67556;55.656;12.590;2023-10-09T10:00:43;3.80;;;2.08;;
78298;SDS011;67556;55.656;12.590;2023-10-09T10:03:18;5.05;;;1.90;;
78298;SDS011;67556;55.656;12.590;2023-10-09T10:05:46;2.85;;;1.77;;
78298;SDS011;67556;55.656;12.590;2023-10-09T10:08:14;2.88;;;1.70;;
78298;SDS011;67556;55.656;12.590;2023-10-09T10:10:45;4.53;;;2.45;;
78298;SDS011;67556;55.656;12.590;2023-10-09T10:13:15;3.03;;;1.83;;
78298;SDS011;67556;55.656;12.590;2023-10-09T10:16:05;3.25;;;2.05;;
78298;SDS011;67556;55.656;12.590;2023-10-09T10:18:52;4.45;;;2.00;;
78298;SDS011;67556;55.656;12.590;2023-10-09T10:21:20;3.30;;;1.80;;
78298;SDS011;67556;55.656;12.590;2023-10-09T10:23:58;3.03;;;1.42;;
78298;SDS011;67556;55.656;12.590;2023-10-09T10:26:31;2.97;;;1.70;;
78298;SDS011;67556;55.656;12.590;2023-10-09T10:29:14;2.20;;;1.33;;
78298;SDS011;67556;55.656;12.590;2023-10-09T10:31:51;2.35;;;1.50;;
78298;SDS011;67556;55.656;12.590;2023-10-09T10:34:19;3.33;;;1.70;;
78298;SDS011;67556;55.656;12.590;2023-10-09T10:36:50;3.08;;;1.65;;
78298;SDS011;67556;55.656;12.590;2023-10-09T10:39:23;4.32;;;1.73;;
78298;SDS011;67556;55.656;12.590;2023-10-09T10:42:08;3.60;;;1.67;;
78298;SDS011;67556;55.656;12.590;2023-10-09T10:44:39;4.00;;;1.83;;
78298;SDS011;67556;55.656;12.590;2023-10-09T10:47:09;2.50;;;1.40;;
78298;SDS011;67556;55.656;12.590;2023-10-09T10:49:47;4.03;;;2.63;;
78298;SDS011;67556;55.656;12.590;2023-10-09T10:52:25;2.15;;;1.55;;
78298;SDS011;67556;55.656;12.590;2023-10-09T10:55:07;8.52;;;4.80;;
78298;SDS011;67556;55.656;12.590;2023-10-09T10:57:42;3.63;;;2.03;;
78298;SDS011;67556;55.656;12.590;2023-10-09T11:00:25;3.72;;;1.70;;
78298;SDS011;67556;55.656;12.590;2023-10-09T11:03:10;3.83;;;1.60;;
78298;SDS011;67556;55.656;12.590;2023-10-09T11:05:42;3.00;;;1.80;;
78298;SDS011;67556;55.656;12.590;2023-10-09T11:08:17;2.72;;;1.70;;
78298;SDS011;67556;55.656;12.590;2023-10-09T11:10:47;3.55;;;2.03;;
78298;SDS011;67556;55.656;12.590;2023-10-09T11:13:22;4.13;;;1.95;;
78298;SDS011;67556;55.656;12.590;2023-10-09T11:15:58;2.42;;;1.70;;
78298;SDS011;67556;55.656;12.590;2023-10-09T11:18:39;2.60;;;1.50;;
78298;SDS011;67556;55.656;12.590;2023-10-09T11:21:09;2.30;;;1.73;;
78298;SDS011;67556;55.656;12.590;2023-10-09T11:23:54;3.10;;;1.60;;
78298;SDS011;67556;55.656;12.590;2023-10-09T11:31:38;2.25;;;1.60;;
78298;SDS011;67556;55.656;12.590;2023-10-09T11:34:04;2.80;;;1.60;;
78298;SDS011;67556;55.656;12.590;2023-10-09T11:36:48;3.58;;;1.85;;
78298;SDS011;67556;55.656;12.590;2023-10-09T11:39:24;2.90;;;1.50;;
78298;SDS011;67556;55.656;12.590;2023-10-09T11:42:01;2.60;;;1.60;;
78298;SDS011;67556;55.656;12.590;2023-10-09T11:44:35;5.53;;;1.77;;
78298;SDS011;67556;55.656;12.590;2023-10-09T11:47:04;3.38;;;1.77;;
78298;SDS011;67556;55.656;12.590;2023-10-09T11:49:48;2.67;;;1.63;;
78298;SDS011;67556;55.656;12.590;2023-10-09T11:52:21;4.00;;;1.77;;
78298;SDS011;67556;55.656;12.590;2023-10-09T11:55:02;2.53;;;1.80;;
78298;SDS011;67556;55.656;12.590;2023-10-09T11:57:29;2.92;;;1.73;;
78298;SDS011;67556;55.656;12.590;2023-10-09T11:59:57;3.30;;;1.70;;
78298;SDS011;67556;55.656;12.590;2023-10-09T12:02:24;3.15;;;2.20;;
78298;SDS011;67556;55.656;12.590;2023-10-09T12:04:51;4.40;;;1.92;;
78298;SDS011;67556;55.656;12.590;2023-10-09T12:07:21;3.30;;;2.10;;
78298;SDS011;67556;55.656;12.590;2023-10-09T12:09:47;5.22;;;2.50;;
78298;SDS011;67556;55.656;12.590;2023-10-09T12:12:16;2.90;;;2.15;;
78298;SDS011;67556;55.656;12.590;2023-10-09T12:14:44;3.00;;;1.67;;
78298;SDS011;67556;55.656;12.590;2023-10-09T12:17:11;2.55;;;1.70;;
78298;SDS011;67556;55.656;12.590;2023-10-09T12:19:37;3.85;;;1.83;;
78298;SDS011;67556;55.656;12.590;2023-10-09T12:22:05;3.88;;;1.70;;
78298;SDS011;67556;55.656;12.590;2023-10-09T12:24:32;3.38;;;2.00;;
78298;SDS011;67556;55.656;12.590;2023-10-09T12:26:59;2.55;;;1.73;;
78298;SDS011;67556;55.656;12.590;2023-10-09T12:29:27;3.30;;;1.90;;
78298;SDS011;67556;55.656;12.590;2023-10-09T12:31:55;2.65;;;1.65;;
78298;SDS011;67556;55.656;12.590;2023-10-09T12:34:24;2.63;;;1.50;;
78298;SDS011;67556;55.656;12.590;2023-10-09T12:36:52;1.98;;;1.50;;
78298;SDS011;67556;55.656;12.590;2023-10-09T12:39:18;3.50;;;2.33;;
78298;SDS011;67556;55.656;12.590;2023-10-09T12:41:45;3.00;;;1.80;;
78298;SDS011;67556;55.656;12.590;2023-10-09T12:44:11;2.55;;;1.80;;
78298;SDS011;67556;55.656;12.590;2023-10-09T12:46:42;3.70;;;1.98;;
78298;SDS011;67556;55.656;12.590;2023-10-09T12:49:17;3.15;;;1.70;;
78298;SDS011;67556;55.656;12.590;2023-10-09T12:51:43;2.53;;;1.98;;
78298;SDS011;67556;55.656;12.590;2023-10-09T12:54:09;2.58;;;1.67;;
78298;SDS011;67556;55.656;12.590;2023-10-09T12:56:39;3.20;;;1.48;;
78298;SDS011;67556;55.656;12.590;2023-10-09T12:59:06;3.65;;;2.08;;
78298;SDS011;67556;55.656;12.590;2023-10-09T13:01:33;3.63;;;2.30;;
78298;SDS011;67556;55.656;12.590;2023-10-09T13:04:08;3.95;;;2.22;;
78298;SDS011;67556;55.656;12.590;2023-10-09T13:06:36;3.17;;;1.92;;
78298;SDS011;67556;55.656;12.590;2023-10-09T13:09:09;3.03;;;2.00;;
78298;SDS011;67556;55.656;12.590;2023-10-09T13:11:35;4.30;;;2.30;;
78298;SDS011;67556;55.656;12.590;2023-10-09T13:14:02;4.85;;;2.90;;
78298;SDS011;67556;55.656;12.590;2023-10-09T13:16:37;4.97;;;2.50;;
78298;SDS011;67556;55.656;12.590;2023-10-09T13:19:04;4.68;;;2.75;;
78298;SDS011;67556;55.656;12.590;2023-10-09T13:21:36;5.70;;;2.85;;
78298;SDS011;67556;55.656;12.590;2023-10-09T13:24:05;4.63;;;3.17;;
78298;SDS011;67556;55.656;12.590;2023-10-09T13:26:37;3.95;;;2.70;;
78298;SDS011;67556;55.656;12.590;2023-10-09T13:29:04;4.57;;;2.50;;
78298;SDS011;67556;55.656;12.590;2023-10-09T13:31:34;4.88;;;2.50;;
78298;SDS011;67556;55.656;12.590;2023-10-09T13:34:03;4.88;;;2.63;;
78298;SDS011;67556;55.656;12.590;2023-10-09T13:36:31;4.00;;;2.70;;
78298;SDS011;67556;55.656;12.590;2023-10-09T13:39:01;3.92;;;2.65;;
78298;SDS011;67556;55.656;12.590;2023-10-09T13:41:47;4.43;;;2.60;;
78298;SDS011;67556;55.656;12.590;2023-10-09T13:44:14;4.20;;;2.67;;
78298;SDS011;67556;55.656;12.590;2023-10-09T13:46:43;4.30;;;3.10;;
78298;SDS011;67556;55.656;12.590;2023-10-09T13:49:13;4.43;;;2.60;;
78298;SDS011;67556;55.656;12.590;2023-10-09T13:51:39;4.47;;;3.50;;
78298;SDS011;67556;55.656;12.590;2023-10-09T13:54:10;4.93;;;3.33;;
78298;SDS011;67556;55.656;12.590;2023-10-09T13:56:45;5.57;;;3.45;;
78298;SDS011;67556;55.656;12.590;2023-10-09T13:59:15;4.45;;;3.78;;
78298;SDS011;67556;55.656;12.590;2023-10-09T14:01:48;6.47;;;3.78;;
78298;SDS011;67556;55.656;12.590;2023-10-09T14:04:14;5.03;;;3.45;;
78298;SDS011;67556;55.656;12.590;2023-10-09T14:06:44;5.40;;;3.90;;
78298;SDS011;67556;55.656;12.590;2023-10-09T14:09:12;4.10;;;3.70;;
78298;SDS011;67556;55.656;12.590;2023-10-09T14:11:54;5.30;;;3.33;;
78298;SDS011;67556;55.656;12.590;2023-10-09T14:14:34;5.30;;;3.35;;
78298;SDS011;67556;55.656;12.590;2023-10-09T14:17:03;6.82;;;3.88;;
78298;SDS011;67556;55.656;12.590;2023-10-09T14:19:39;5.07;;;4.28;;
78298;SDS011;67556;55.656;12.590;2023-10-09T14:22:11;4.30;;;3.50;;
78298;SDS011;67556;55.656;12.590;2023-10-09T14:24:42;4.25;;;3.17;;
78298;SDS011;67556;55.656;12.590;2023-10-09T14:27:14;4.88;;;3.78;;
78298;SDS011;67556;55.656;12.590;2023-10-09T14:29:45;6.50;;;3.70;;
78298;SDS011;67556;55.656;12.590;2023-10-09T14:32:12;4.78;;;3.63;;
78298;SDS011;67556;55.656;12.590;2023-10-09T14:34:39;8.38;;;4.95;;
78298;SDS011;67556;55.656;12.590;2023-10-09T14:37:11;5.28;;;4.22;;
78298;SDS011;67556;55.656;12.590;2023-10-09T14:39:41;4.85;;;3.55;;
78298;SDS011;67556;55.656;12.590;2023-10-09T14:42:13;4.72;;;3.88;;
78298;SDS011;67556;55.656;12.590;2023-10-09T14:44:40;4.40;;;3.78;;
78298;SDS011;67556;55.656;12.590;2023-10-09T14:47:10;7.07;;;4.07;;
78298;SDS011;67556;55.656;12.590;2023-10-09T14:49:39;5.75;;;3.83;;
78298;SDS011;67556;55.656;12.590;2023-10-09T14:52:09;4.85;;;4.18;;
78298;SDS011;67556;55.656;12.590;2023-10-09T14:54:36;7.10;;;4.40;;
78298;SDS011;67556;55.656;12.590;2023-10-09T14:57:04;4.60;;;3.90;;
78298;SDS011;67556;55.656;12.590;2023-10-09T14:59:31;5.18;;;3.97;;
78298;SDS011;67556;55.656;12.590;2023-10-09T15:01:58;6.47;;;3.90;;
78298;SDS011;67556;55.656;12.590;2023-10-09T15:04:24;5.65;;;3.75;;
78298;SDS011;67556;55.656;12.590;2023-10-09T15:06:54;5.85;;;4.10;;
78298;SDS011;67556;55.656;12.590;2023-10-09T15:09:22;6.22;;;4.30;;
78298;SDS011;67556;55.656;12.590;2023-10-09T15:11:54;5.80;;;4.25;;
78298;SDS011;67556;55.656;12.590;2023-10-09T15:14:23;4.82;;;3.80;;
78298;SDS011;67556;55.656;12.590;2023-10-09T15:16:50;5.97;;;3.95;;
78298;SDS011;67556;55.656;12.590;2023-10-09T15:19:17;3.83;;;3.38;;
78298;SDS011;67556;55.656;12.590;2023-10-09T15:21:45;4.22;;;3.15;;